Time;durP1;ratioP1;P1;durP2;ratioP2;P2;SDS_P1;SDS_P2;PMS_P1;PMS_P2;Temp;Humidity;BMP_temperature;BMP_pressure;BME280_temperature;BME280_humidity;BME280_pressure;Samples;Min_cycle;Max_cycle;Signal;HPM_P1;HPM_P2
2023/12/16 00:01:14;;;;;;;6.50;5.30;;;;;;;10.02;47.70;103195.76;107082;1271;25415;-54
2023/12/16 00:03:42;;;;;;;6.30;5.70;;;;;;;10.04;47.50;103194.92;107231;1267;25487;-54
2023/12/16 00:06:09;;;;;;;8.20;5.60;;;;;;;10.06;47.63;103189.58;107138;1266;25442;-54
2023/12/16 00:08:37;;;;;;;6.90;6.20;;;;;;;10.10;47.89;103190.02;107131;1267;25330;-54
2023/12/16 00:11:04;;;;;;;6.20;5.30;;;;;;;10.15;47.95;103187.54;106788;1266;23462;-55
2023/12/16 00:13:31;;;;;;;6.50;5.40;;;;;;;10.18;47.89;103186.54;107112;1267;25494;-54
2023/12/16 00:15:59;;;;;;;7.80;5.00;;;;;;;10.19;47.78;103187.10;106293;1267;1003528;-54
2023/12/16 00:18:26;;;;;;;6.00;5.10;;;;;;;10.18;47.70;103187.25;106891;1270;26222;-54
2023/12/16 00:20:53;;;;;;;6.40;5.00;;;;;;;10.18;47.82;103188.30;107069;1266;24219;-54
2023/12/16 00:23:20;;;;;;;5.70;5.20;;;;;;;10.19;47.52;103192.98;107160;1266;25356;-54
2023/12/16 00:25:47;;;;;;;6.90;5.90;;;;;;;10.21;47.37;103194.41;106374;1271;1003430;-54
2023/12/16 00:28:15;;;;;;;7.80;6.60;;;;;;;10.24;47.45;103194.46;107121;1266;25369;-54
2023/12/16 00:30:42;;;;;;;8.00;5.90;;;;;;;10.24;47.52;103191.86;106859;1267;25304;-54
2023/12/16 00:33:09;;;;;;;6.20;5.50;;;;;;;10.24;47.62;103189.09;106331;1274;1003696;-54
2023/12/16 00:35:36;;;;;;;6.30;5.30;;;;;;;10.24;47.58;103184.93;107139;1266;25400;-54
2023/12/16 00:38:03;;;;;;;6.20;5.40;;;;;;;10.24;47.66;103181.98;107172;1270;25994;-54
2023/12/16 00:40:31;;;;;;;7.60;5.80;;;;;;;10.25;47.75;103176.61;107076;1266;25347;-54
2023/12/16 00:42:58;;;;;;;6.80;5.10;;;;;;;10.25;47.73;103171.93;106317;1267;1003054;-54
2023/12/16 00:45:25;;;;;;;7.20;6.00;;;;;;;10.28;47.67;103171.30;107192;1267;25359;-54
2023/12/16 00:47:53;;;;;;;7.80;6.40;;;;;;;10.32;47.61;103167.55;107125;1266;22551;-54
2023/12/16 00:50:21;;;;;;;8.50;5.40;;;;;;;10.35;47.47;103170.20;107120;1267;25420;-55
2023/12/16 00:52:48;;;;;;;5.80;5.20;;;;;;;10.38;47.35;103180.49;107007;1273;25487;-54
2023/12/16 00:55:15;;;;;;;6.20;5.30;;;;;;;10.39;47.36;103186.95;106140;1272;1003251;-54
2023/12/16 00:57:42;;;;;;;6.50;5.00;;;;;;;10.41;47.31;103187.64;107068;1257;22521;-55
2023/12/16 01:00:10;;;;;;;5.60;4.90;;;;;;;10.41;47.43;103190.26;107112;1261;22542;-54
2023/12/16 01:02:37;;;;;;;4.90;4.40;;;;;;;10.41;47.58;103193.04;107118;1255;25365;-55
2023/12/16 01:05:05;;;;;;;5.50;4.80;;;;;;;10.40;47.45;103198.91;107047;1257;25497;-55
2023/12/16 01:07:32;;;;;;;6.10;5.40;;;;;;;10.37;47.41;103198.86;107103;1257;25362;-54
2023/12/16 01:09:59;;;;;;;6.70;6.00;;;;;;;10.33;47.38;103200.71;107042;1257;25375;-54
2023/12/16 01:12:26;;;;;;;7.70;6.90;;;;;;;10.27;47.73;103203.04;106127;1260;1003816;-54
2023/12/16 01:14:53;;;;;;;7.70;6.70;;;;;;;10.25;47.86;103204.90;107041;1257;25375;-54
2023/12/16 01:17:20;;;;;;;8.20;6.30;;;;;;;10.25;48.05;103208.02;107184;1263;25496;-56
2023/12/16 01:19:47;;;;;;;7.70;6.90;;;;;;;10.24;48.09;103211.48;106928;1257;25369;-55
2023/12/16 01:22:14;;;;;;;6.70;5.80;;;;;;;10.21;48.21;103217.48;106665;1273;25369;-56
2023/12/16 01:24:41;;;;;;;8.00;7.20;;;;;;;10.15;48.31;103221.19;106126;1257;1003741;-54
2023/12/16 01:27:08;;;;;;;7.90;7.00;;;;;;;10.10;48.51;103227.84;106915;1258;24206;-55
2023/12/16 01:29:36;;;;;;;8.10;7.20;;;;;;;10.07;48.65;103233.83;106845;1263;25437;-55
2023/12/16 01:32:03;;;;;;;7.60;6.80;;;;;;;10.05;48.76;103239.16;106222;1257;1003461;-54
2023/12/16 01:34:30;;;;;;;8.00;7.20;;;;;;;10.05;48.95;103247.64;107002;1254;25421;-54
2023/12/16 01:36:58;;;;;;;8.80;7.60;;;;;;;10.03;48.94;103249.88;106813;1258;25376;-54
2023/12/16 01:39:25;;;;;;;8.60;7.70;;;;;;;10.01;48.77;103251.23;106907;1264;25404;-55
2023/12/16 01:41:53;;;;;;;10.90;8.30;;;;;;;9.97;48.68;103250.61;106914;1257;24253;-54
2023/12/16 01:44:19;;;;;;;11.70;8.40;;;;;;;9.93;48.78;103244.45;106987;1257;25363;-54
2023/12/16 01:46:47;;;;;;;9.40;8.40;;;;;;;9.91;48.69;103242.52;107077;1257;24351;-54
2023/12/16 01:49:14;;;;;;;11.30;8.80;;;;;;;9.89;48.53;103241.77;106754;1269;23857;-54
2023/12/16 01:51:41;;;;;;;10.80;8.90;;;;;;;9.85;48.59;103240.66;106912;1267;25344;-54
2023/12/16 01:54:08;;;;;;;10.40;8.90;;;;;;;9.81;48.68;103238.15;107017;1256;24177;-54
2023/12/16 01:56:35;;;;;;;9.90;8.60;;;;;;;9.75;48.84;103236.83;106346;1257;1002945;-54
2023/12/16 01:59:03;;;;;;;11.20;9.70;;;;;;;9.72;49.15;103238.32;107078;1254;25586;-54
2023/12/16 02:01:30;;;;;;;9.00;8.00;;;;;;;9.67;49.37;103237.36;107114;1267;25353;-54
2023/12/16 02:03:57;;;;;;;10.80;8.50;;;;;;;9.64;49.44;103242.64;106562;1260;25529;-55
2023/12/16 02:06:26;;;;;;;9.50;7.20;;;;;;;9.55;48.60;103245.23;105457;1262;1003516;-54
2023/12/16 02:08:52;;;;;;;7.10;6.40;;;;;;;9.45;48.00;103244.30;106257;1262;24006;-54
2023/12/16 02:11:20;;;;;;;5.20;4.70;;;;;;;9.35;47.15;103246.34;106539;1267;25472;-54
2023/12/16 02:13:49;;;;;;;5.70;4.80;;;;;;;9.26;46.44;103244.40;106526;1264;25366;-54
2023/12/16 02:16:16;;;;;;;5.50;4.50;;;;;;;9.20;46.33;103248.06;106771;1259;25430;-54
2023/12/16 02:18:43;;;;;;;5.40;4.60;;;;;;;9.16;45.92;103258.16;106698;1270;25334;-54
2023/12/16 02:21:10;;;;;;;6.00;4.40;;;;;;;9.11;45.87;103249.58;106781;1259;25504;-54
2023/12/16 02:23:38;;;;;;;6.10;3.90;;;;;;;9.06;45.74;103253.59;106711;1266;22649;-54
2023/12/16 02:26:06;;;;;;;4.50;3.70;;;;;;;9.03;45.58;103260.62;106758;1264;23894;-54
2023/12/16 02:28:34;;;;;;;4.80;3.60;;;;;;;8.97;44.91;103265.16;106755;1259;24202;-54
2023/12/16 02:31:01;;;;;;;4.20;3.60;;;;;;;8.89;44.68;103266.52;106734;1266;25363;-54
2023/12/16 02:33:28;;;;;;;4.00;2.90;;;;;;;8.83;44.29;103270.88;106804;1260;25500;-54
2023/12/16 02:35:55;;;;;;;3.40;3.10;;;;;;;8.77;44.10;103275.19;107051;1260;25586;-54
2023/12/16 02:38:22;;;;;;;4.50;3.00;;;;;;;8.70;43.93;103285.75;107086;1255;25363;-55
2023/12/16 02:40:50;;;;;;;3.70;3.30;;;;;;;8.65;43.78;103286.66;107098;1254;24255;-54
2023/12/16 02:43:17;;;;;;;4.40;3.50;;;;;;;8.62;44.11;103288.98;106822;1260;25334;-54
2023/12/16 02:45:44;;;;;;;6.90;3.90;;;;;;;8.60;44.17;103285.66;106404;1254;1003619;-54
2023/12/16 02:48:11;;;;;;;4.50;3.40;;;;;;;8.62;44.59;103284.83;107124;1264;25363;-54
2023/12/16 02:50:38;;;;;;;3.70;3.20;;;;;;;8.64;44.70;103291.30;107075;1263;25375;-54
2023/12/16 02:53:06;;;;;;;4.30;3.40;;;;;;;8.66;44.82;103291.36;106804;1263;25375;-54
2023/12/16 02:55:34;;;;;;;4.00;3.50;;;;;;;8.68;44.80;103290.89;106836;1272;24271;-54
2023/12/16 02:58:00;;;;;;;4.90;3.50;;;;;;;8.68;44.57;103298.84;106876;1263;25397;-54
2023/12/16 03:00:27;;;;;;;4.30;3.90;;;;;;;8.68;44.75;103301.45;107134;1256;25362;-54
2023/12/16 03:02:54;;;;;;;4.30;3.40;;;;;;;8.69;44.67;103301.30;107117;1263;25343;-54
2023/12/16 03:05:21;;;;;;;5.20;3.60;;;;;;;8.69;44.13;103303.02;107036;1263;25353;-54
2023/12/16 03:07:49;;;;;;;3.60;3.30;;;;;;;8.68;43.77;103312.86;106346;1272;1003393;-55
2023/12/16 03:10:16;;;;;;;3.40;2.80;;;;;;;8.68;43.42;103311.63;107032;1265;25338;-54
2023/12/16 03:12:44;;;;;;;4.30;3.40;;;;;;;8.66;43.62;103318.86;106768;1263;25424;-56
2023/12/16 03:15:11;;;;;;;3.40;3.00;;;;;;;8.64;43.39;103322.80;106853;1251;22535;-57
2023/12/16 03:17:38;;;;;;;4.00;2.90;;;;;;;8.63;43.29;103322.77;106283;1259;1003162;-58
2023/12/16 03:20:08;;;;;;;3.20;2.60;;;;;;;8.61;42.90;103322.53;106404;1264;1002890;-57
2023/12/16 03:22:35;;;;;;;3.20;2.90;;;;;;;8.59;43.00;103330.96;107126;1256;24186;-54
2023/12/16 03:25:02;;;;;;;4.10;3.20;;;;;;;8.62;43.09;103327.76;106411;1257;1003010;-55
2023/12/16 03:27:29;;;;;;;3.50;2.90;;;;;;;8.64;42.96;103329.37;107093;1259;25340;-55
2023/12/16 03:29:56;;;;;;;3.10;2.80;;;;;;;8.64;42.58;103324.18;106359;1257;1003281;-54
2023/12/16 03:32:24;;;;;;;2.70;2.50;;;;;;;8.64;42.37;103333.17;107124;1256;25383;-55
2023/12/16 03:34:51;;;;;;;3.40;2.90;;;;;;;8.62;41.86;103341.27;106310;1263;1002983;-55
2023/12/16 03:37:18;;;;;;;3.20;2.80;;;;;;;8.61;41.84;103346.08;107111;1258;25414;-55
2023/12/16 03:39:46;;;;;;;5.80;3.00;;;;;;;8.58;42.02;103351.86;106910;1264;25414;-55
2023/12/16 03:42:13;;;;;;;4.00;2.70;;;;;;;8.56;42.01;103364.09;106848;1264;25367;-55
2023/12/16 03:44:41;;;;;;;3.00;2.70;;;;;;;8.54;42.19;103372.52;105805;1259;1015551;-54
2023/12/16 03:47:08;;;;;;;3.30;2.60;;;;;;;8.53;42.24;103381.83;106701;1266;22619;-55
2023/12/16 03:49:35;;;;;;;2.70;2.50;;;;;;;8.52;42.26;103384.74;106789;1260;25533;-54
2023/12/16 03:52:03;;;;;;;3.50;2.30;;;;;;;8.53;42.56;103395.30;106065;1260;1003302;-54
2023/12/16 03:54:31;;;;;;;2.70;2.40;;;;;;;8.56;42.96;103400.59;106043;1272;1003136;-55
2023/12/16 03:56:58;;;;;;;3.40;3.00;;;;;;;8.59;42.81;103395.66;106832;1271;25414;-54
2023/12/16 03:59:25;;;;;;;2.60;2.10;;;;;;;8.61;42.54;103395.54;106352;1263;25459;-54
2023/12/16 04:01:51;;;;;;;2.60;2.40;;;;;;;8.62;42.35;103400.94;106681;1269;25583;-54
2023/12/16 04:04:19;;;;;;;2.90;2.60;;;;;;;8.63;42.32;103409.11;106720;1267;25343;-55
2023/12/16 04:06:46;;;;;;;3.20;2.50;;;;;;;8.63;42.17;103409.77;106692;1266;25418;-54
2023/12/16 04:09:13;;;;;;;2.70;2.40;;;;;;;8.61;42.20;103408.88;106681;1260;25344;-55
2023/12/16 04:11:58;;;;;;;3.50;2.30;;;;;;;8.60;42.47;103407.27;106872;1270;25501;-55
2023/12/16 04:14:25;;;;;;;3.90;3.00;;;;;;;8.59;42.57;103406.92;106637;1265;25335;-55
2023/12/16 04:16:53;;;;;;;2.70;2.50;;;;;;;8.59;42.65;103408.14;106796;1259;23321;-55
2023/12/16 04:19:20;;;;;;;3.00;2.60;;;;;;;8.59;42.56;103410.38;106822;1271;25366;-54
2023/12/16 04:21:47;;;;;;;2.90;2.60;;;;;;;8.59;42.42;103412.27;106763;1267;22526;-55
2023/12/16 04:24:14;;;;;;;3.70;2.80;;;;;;;8.58;42.35;103411.90;107097;1263;24218;-54
2023/12/16 04:26:41;;;;;;;3.60;2.90;;;;;;;8.57;42.05;103412.40;106930;1260;24207;-54
2023/12/16 04:29:08;;;;;;;2.80;2.50;;;;;;;8.55;41.93;103412.48;106005;1274;1003435;-54
2023/12/16 04:31:35;;;;;;;2.60;2.40;;;;;;;8.52;42.09;103415.88;106798;1270;25414;-54
2023/12/16 04:34:02;;;;;;;3.60;2.50;;;;;;;8.49;42.18;103417.88;106882;1260;22991;-54
2023/12/16 04:36:30;;;;;;;2.90;2.60;;;;;;;8.48;41.99;103420.79;106979;1255;25362;-55
2023/12/16 04:38:57;;;;;;;2.30;2.10;;;;;;;8.45;41.98;103420.51;107263;1256;25365;-55
2023/12/16 04:41:24;;;;;;;2.50;2.30;;;;;;;8.43;42.43;103420.46;106193;1257;1003039;-54
2023/12/16 04:43:53;;;;;;;2.10;1.90;;;;;;;8.44;42.83;103421.86;106812;1272;25417;-54
2023/12/16 04:46:20;;;;;;;2.30;2.10;;;;;;;8.45;42.64;103422.26;106858;1257;25523;-54
2023/12/16 04:48:47;;;;;;;3.50;2.80;;;;;;;8.42;42.47;103421.48;106833;1267;22646;-54
2023/12/16 04:51:15;;;;;;;3.20;2.60;;;;;;;8.38;42.59;103427.40;106028;1270;1003312;-54
2023/12/16 04:53:41;;;;;;;2.70;2.50;;;;;;;8.34;42.90;103432.09;106193;1258;1003150;-54
2023/12/16 04:56:09;;;;;;;2.40;2.20;;;;;;;8.30;43.14;103432.19;107033;1254;25376;-54
2023/12/16 04:58:36;;;;;;;2.60;2.40;;;;;;;8.29;43.13;103430.21;106287;1251;1003445;-55
2023/12/16 05:01:03;;;;;;;2.30;2.00;;;;;;;8.26;43.04;103424.97;106904;1263;25328;-54
2023/12/16 05:03:32;;;;;;;2.20;2.00;;;;;;;8.26;43.35;103422.53;106308;1254;1003014;-55
2023/12/16 05:05:58;;;;;;;2.80;2.30;;;;;;;8.24;43.18;103423.52;106782;1257;26650;-54
2023/12/16 05:08:26;;;;;;;3.00;2.50;;;;;;;8.22;43.09;103427.06;106906;1264;25393;-54
2023/12/16 05:10:53;;;;;;;2.30;2.10;;;;;;;8.21;43.21;103430.67;106058;1270;1003558;-58
2023/12/16 05:13:20;;;;;;;2.40;2.20;;;;;;;8.18;43.19;103431.61;106692;1257;22541;-55
2023/12/16 05:15:47;;;;;;;2.90;2.30;;;;;;;8.17;43.22;103435.73;107244;1255;25328;-55
2023/12/16 05:18:14;;;;;;;3.00;2.40;;;;;;;8.16;43.29;103439.83;106161;1263;1003058;-54
2023/12/16 05:20:41;;;;;;;3.30;2.30;;;;;;;8.14;43.02;103438.05;106782;1260;25351;-54
2023/12/16 05:23:09;;;;;;;3.30;2.70;;;;;;;8.11;43.15;103441.77;107072;1251;24195;-54
2023/12/16 05:25:37;;;;;;;3.50;3.00;;;;;;;8.10;43.54;103445.19;106344;1256;1002946;-54
2023/12/16 05:28:04;;;;;;;2.50;2.30;;;;;;;8.08;43.49;103445.82;106310;1257;1003059;-54
2023/12/16 05:30:31;;;;;;;3.20;2.40;;;;;;;8.08;43.84;103446.67;107109;1255;25337;-54
2023/12/16 05:32:58;;;;;;;3.70;2.90;;;;;;;8.07;43.83;103441.65;107135;1254;25398;-54
2023/12/16 05:35:25;;;;;;;3.60;2.70;;;;;;;8.06;44.10;103437.30;106958;1256;25458;-54
2023/12/16 05:37:52;;;;;;;3.00;2.50;;;;;;;8.06;44.25;103442.13;106882;1256;25419;-55
2023/12/16 05:40:19;;;;;;;3.70;3.20;;;;;;;8.07;44.20;103447.86;106811;1255;22526;-54
2023/12/16 05:42:46;;;;;;;2.90;2.50;;;;;;;8.07;44.17;103450.45;106847;1267;25362;-54
2023/12/16 05:45:14;;;;;;;3.20;2.80;;;;;;;8.05;44.24;103447.28;106109;1264;1002682;-54
2023/12/16 05:47:41;;;;;;;3.90;3.30;;;;;;;8.04;44.21;103442.73;107171;1251;25356;-54
2023/12/16 05:50:09;;;;;;;3.30;2.40;;;;;;;8.02;44.02;103449.60;107070;1270;24348;-55
2023/12/16 05:52:37;;;;;;;3.40;2.90;;;;;;;8.01;44.03;103455.65;107029;1267;22521;-54
2023/12/16 05:55:05;;;;;;;2.40;2.20;;;;;;;8.01;43.87;103455.28;107092;1264;25500;-54
2023/12/16 05:57:32;;;;;;;2.40;2.20;;;;;;;8.01;43.40;103459.42;107061;1254;25362;-54
2023/12/16 05:59:59;;;;;;;4.20;2.80;;;;;;;8.00;43.27;103459.59;106980;1257;26647;-54
2023/12/16 06:02:26;;;;;;;2.80;2.60;;;;;;;8.01;43.47;103457.54;105961;1267;1002927;-55
2023/12/16 06:04:53;;;;;;;3.60;2.70;;;;;;;8.01;43.50;103453.38;106242;1261;1002676;-54
2023/12/16 06:07:20;;;;;;;3.70;2.20;;;;;;;8.00;43.69;103452.14;106766;1260;25328;-54
2023/12/16 06:09:48;;;;;;;3.40;2.70;;;;;;;8.00;43.84;103450.94;106029;1251;1002943;-54
2023/12/16 06:12:15;;;;;;;4.10;3.30;;;;;;;8.01;43.84;103448.55;106406;1262;25363;-54
2023/12/16 06:14:42;;;;;;;2.90;2.40;;;;;;;8.01;43.97;103447.49;106717;1267;25468;-54
2023/12/16 06:17:09;;;;;;;3.20;2.90;;;;;;;8.01;43.82;103446.97;106765;1266;25494;-54
2023/12/16 06:19:36;;;;;;;3.20;2.80;;;;;;;8.01;43.87;103448.02;107125;1254;24177;-54
2023/12/16 06:22:04;;;;;;;3.20;2.40;;;;;;;8.01;44.04;103444.73;106182;1267;1002937;-54
2023/12/16 06:24:31;;;;;;;2.90;2.60;;;;;;;8.03;44.04;103451.70;107095;1258;25362;-54
2023/12/16 06:26:58;;;;;;;2.90;2.70;;;;;;;8.06;44.17;103456.30;106841;1258;25369;-54
2023/12/16 06:29:25;;;;;;;3.10;2.70;;;;;;;8.08;43.99;103459.15;107061;1267;25356;-54
2023/12/16 06:31:52;;;;;;;3.80;2.50;;;;;;;8.09;43.80;103457.61;106849;1267;25385;-54
2023/12/16 06:34:19;;;;;;;3.30;2.90;;;;;;;8.07;43.50;103457.02;106894;1260;25491;-54
2023/12/16 06:36:46;;;;;;;3.10;2.60;;;;;;;8.06;43.76;103452.69;107111;1256;23542;-54
2023/12/16 06:39:13;;;;;;;4.50;2.80;;;;;;;8.07;43.92;103456.16;106138;1254;1003108;-54
2023/12/16 06:41:40;;;;;;;4.30;2.60;;;;;;;8.07;43.76;103452.87;106869;1254;25363;-58
2023/12/16 06:44:07;;;;;;;3.90;3.10;;;;;;;8.06;43.50;103458.55;107184;1254;25369;-54
2023/12/16 06:46:35;;;;;;;3.50;2.70;;;;;;;8.05;43.64;103460.09;106268;1255;1003022;-53
2023/12/16 06:49:02;;;;;;;5.20;3.00;;;;;;;8.06;43.85;103471.16;106910;1260;24209;-54
2023/12/16 06:51:29;;;;;;;3.90;2.60;;;;;;;8.08;44.01;103479.04;106775;1254;1002977;-54
2023/12/16 06:53:56;;;;;;;3.40;2.80;;;;;;;8.08;44.01;103478.15;107197;1258;25385;-54
2023/12/16 06:56:23;;;;;;;4.30;3.10;;;;;;;8.07;44.04;103476.23;106172;1251;1003511;-54
2023/12/16 06:58:51;;;;;;;5.50;3.90;;;;;;;8.10;44.20;103481.13;106861;1258;25366;-54
2023/12/16 07:01:18;;;;;;;5.50;3.70;;;;;;;8.12;44.25;103485.38;106089;1257;1003384;-54
2023/12/16 07:03:45;;;;;;;3.90;3.10;;;;;;;8.14;44.23;103486.30;106742;1258;25337;-54
2023/12/16 07:06:12;;;;;;;4.60;3.60;;;;;;;8.16;44.39;103490.16;106600;1275;25487;-54
2023/12/16 07:08:43;;;;;;;5.20;3.40;;;;;;;8.18;44.57;103490.73;107042;1257;25366;-54
2023/12/16 07:11:12;;;;;;;4.30;3.60;;;;;;;8.20;44.79;103497.04;106346;1254;1003501;-54
2023/12/16 07:13:39;;;;;;;4.50;3.50;;;;;;;8.20;45.09;103496.55;106797;1251;22521;-54
2023/12/16 07:16:07;;;;;;;5.90;3.10;;;;;;;8.17;44.63;103496.25;106911;1251;25411;-54
2023/12/16 07:18:37;;;;;;;3.80;3.20;;;;;;;8.13;44.76;103496.28;106754;1257;22634;-55
2023/12/16 07:21:06;;;;;;;3.10;2.80;;;;;;;8.10;45.41;103493.26;106811;1256;25235;-55
2023/12/16 07:23:33;;;;;;;5.00;3.60;;;;;;;8.12;45.79;103492.09;106116;1254;1003078;-54
2023/12/16 07:26:03;;;;;;;4.30;3.50;;;;;;;8.14;45.90;103489.59;107134;1251;22534;-54
2023/12/16 07:28:30;;;;;;;5.40;3.60;;;;;;;8.16;45.71;103487.93;106811;1272;25356;-54
2023/12/16 07:30:58;;;;;;;4.90;3.70;;;;;;;8.19;45.87;103486.97;107058;1258;25380;-54
2023/12/16 07:33:26;;;;;;;4.80;4.00;;;;;;;8.23;45.73;103494.02;107050;1257;25242;-54
2023/12/16 07:35:53;;;;;;;5.20;3.70;;;;;;;8.23;45.63;103486.23;107144;1251;25365;-54
2023/12/16 07:38:21;;;;;;;4.50;3.90;;;;;;;8.22;45.72;103480.16;107225;1254;22644;-56
2023/12/16 07:40:48;;;;;;;8.10;4.60;;;;;;;8.23;45.44;103474.65;107106;1254;25350;-55
2023/12/16 07:43:15;;;;;;;4.40;3.90;;;;;;;8.23;45.47;103474.48;106159;1251;1003028;-59
2023/12/16 07:45:43;;;;;;;6.40;4.20;;;;;;;8.24;45.56;103471.58;107174;1254;23291;-55
2023/12/16 07:48:10;;;;;;;5.00;4.00;;;;;;;8.24;45.64;103476.23;107066;1250;25344;-55
2023/12/16 07:50:37;;;;;;;5.60;4.00;;;;;;;8.25;45.65;103478.02;107164;1256;25419;-54
2023/12/16 07:53:05;;;;;;;5.40;3.90;;;;;;;8.27;45.45;103480.31;106117;1257;1002904;-55
2023/12/16 07:55:32;;;;;;;4.30;3.70;;;;;;;8.26;45.42;103482.03;106913;1267;25527;-55
2023/12/16 07:57:59;;;;;;;5.90;3.90;;;;;;;8.27;45.76;103481.34;107125;1254;25375;-55
2023/12/16 08:00:27;;;;;;;4.80;4.00;;;;;;;8.28;45.62;103486.24;107064;1260;25484;-54
2023/12/16 08:02:54;;;;;;;5.40;3.80;;;;;;;8.28;45.66;103485.55;107104;1257;25366;-55
2023/12/16 08:05:21;;;;;;;3.80;3.30;;;;;;;8.29;45.50;103486.27;107077;1254;25496;-54
2023/12/16 08:07:50;;;;;;;5.60;4.00;;;;;;;8.30;45.72;103484.92;106840;1257;25405;-55
2023/12/16 08:10:17;;;;;;;5.40;4.00;;;;;;;8.32;45.80;103484.79;106341;1252;1003611;-55
2023/12/16 08:12:45;;;;;;;5.00;3.70;;;;;;;8.35;46.06;103483.86;107047;1254;25471;-55
2023/12/16 08:15:16;;;;;;;;;;;;;;;8.41;46.08;103478.86;106565;1257;24262;-55
2023/12/16 08:17:43;;;;;;;4.70;4.00;;;;;;;8.41;45.66;103478.88;106268;1269;25331;-55
2023/12/16 08:20:11;;;;;;;5.10;4.30;;;;;;;8.40;45.72;103477.77;106588;1257;25350;-55
2023/12/16 08:22:38;;;;;;;7.20;4.30;;;;;;;8.38;46.09;103481.72;106527;1264;25625;-55
2023/12/16 08:25:06;;;;;;;4.10;3.70;;;;;;;8.40;46.51;103486.61;106512;1261;25500;-55
2023/12/16 08:27:33;;;;;;;4.70;3.90;;;;;;;8.41;46.56;103483.90;106708;1262;25350;-55
2023/12/16 08:30:00;;;;;;;4.50;3.90;;;;;;;8.45;46.73;103484.02;106797;1257;25388;-54
2023/12/16 08:32:27;;;;;;;9.50;7.20;;;;;;;8.51;46.69;103486.08;106690;1273;25363;-54
2023/12/16 08:34:55;;;;;;;6.20;5.00;;;;;;;8.58;46.73;103484.39;106909;1257;25356;-55
2023/12/16 08:37:23;;;;;;;4.70;4.10;;;;;;;8.63;46.41;103486.77;106784;1260;25331;-55
2023/12/16 08:39:49;;;;;;;5.40;4.70;;;;;;;8.65;46.45;103485.48;106050;1266;1002857;-55
2023/12/16 08:42:16;;;;;;;5.10;4.30;;;;;;;8.71;46.52;103485.33;106840;1259;22528;-55
2023/12/16 08:44:43;;;;;;;4.10;3.70;;;;;;;8.76;46.31;103480.95;106775;1258;22540;-55
2023/12/16 08:47:10;;;;;;;4.90;4.40;;;;;;;8.81;46.24;103484.73;106869;1260;25395;-54
2023/12/16 08:49:37;;;;;;;6.20;4.80;;;;;;;8.88;46.01;103483.20;106647;1263;25365;-54
2023/12/16 08:52:06;;;;;;;4.60;4.00;;;;;;;8.93;45.88;103482.14;106821;1254;25277;-54
2023/12/16 08:54:33;;;;;;;6.10;4.90;;;;;;;8.96;45.51;103481.89;106834;1260;24442;-54
2023/12/16 08:57:01;;;;;;;6.60;5.40;;;;;;;8.98;45.56;103480.72;106980;1254;23431;-55
2023/12/16 08:59:28;;;;;;;5.80;4.50;;;;;;;9.03;45.55;103482.05;106771;1250;25344;-55
2023/12/16 09:01:57;;;;;;;6.10;4.70;;;;;;;9.08;45.37;103479.09;106799;1251;25348;-55
2023/12/16 09:04:24;;;;;;;5.10;4.40;;;;;;;9.06;44.86;103472.98;106815;1255;25421;-55
2023/12/16 09:06:51;;;;;;;5.70;4.60;;;;;;;8.97;45.08;103471.88;106811;1254;25475;-55
2023/12/16 09:09:18;;;;;;;7.60;4.30;;;;;;;9.00;45.06;103468.30;106870;1258;23337;-55
2023/12/16 09:11:45;;;;;;;6.00;4.60;;;;;;;9.02;44.97;103470.64;106996;1254;25299;-55
2023/12/16 09:14:13;;;;;;;5.50;4.80;;;;;;;9.01;44.87;103470.07;106301;1253;1003691;-55
2023/12/16 09:16:40;;;;;;;5.00;3.80;;;;;;;9.01;45.07;103469.39;107187;1251;22524;-55
2023/12/16 09:19:07;;;;;;;5.30;4.50;;;;;;;9.03;44.85;103467.88;106962;1264;25353;-55
2023/12/16 09:21:35;;;;;;;5.50;4.80;;;;;;;9.03;44.92;103463.70;107139;1251;25465;-55
2023/12/16 09:24:02;;;;;;;6.60;4.70;;;;;;;9.04;45.05;103460.30;107145;1253;23313;-55
2023/12/16 09:26:29;;;;;;;5.20;4.30;;;;;;;9.08;44.86;103453.63;107079;1256;25495;-54
2023/12/16 09:28:56;;;;;;;5.30;4.50;;;;;;;9.12;44.88;103455.64;107135;1256;25344;-55
2023/12/16 09:31:23;;;;;;;6.50;5.20;;;;;;;9.13;44.57;103453.77;107016;1254;25487;-54
2023/12/16 09:33:51;;;;;;;5.80;4.70;;;;;;;9.11;44.46;103458.04;107227;1254;25385;-55
2023/12/16 09:36:18;;;;;;;6.30;4.90;;;;;;;9.11;44.63;103455.98;107132;1264;25363;-55
2023/12/16 09:38:45;;;;;;;6.00;4.80;;;;;;;9.15;44.71;103451.91;106928;1257;25337;-55
2023/12/16 09:41:23;;;;;;;6.10;4.90;;;;;;;9.17;44.41;103445.75;106144;1251;1005402;-55
2023/12/16 09:43:54;;;;;;;5.70;5.20;;;;;;;9.13;44.39;103446.16;106928;1267;25493;-55
2023/12/16 09:46:27;;;;;;;6.30;5.10;;;;;;;9.10;44.76;103450.60;107140;1253;23891;-55
2023/12/16 09:48:54;;;;;;;6.10;4.50;;;;;;;9.10;44.70;103451.80;106371;1253;1002908;-54
2023/12/16 09:51:21;;;;;;;5.90;4.80;;;;;;;9.07;44.64;103455.52;107179;1250;22643;-54
2023/12/16 09:53:49;;;;;;;7.20;5.20;;;;;;;9.04;44.81;103453.88;107102;1254;25517;-54
2023/12/16 09:56:17;;;;;;;5.30;4.80;;;;;;;9.03;44.63;103451.95;107107;1254;25375;-54
2023/12/16 09:58:48;;;;;;;6.20;5.30;;;;;;;9.03;45.04;103452.11;107184;1254;25489;-54
2023/12/16 10:01:18;;;;;;;5.40;4.80;;;;;;;9.01;44.97;103448.94;107137;1254;25366;-54
2023/12/16 10:03:46;;;;;;;7.70;4.90;;;;;;;8.84;45.44;103447.27;106853;1257;25379;-54
2023/12/16 10:06:14;;;;;;;7.60;5.30;;;;;;;8.84;45.74;103447.44;106410;1251;1002483;-54
2023/12/16 10:08:41;;;;;;;6.60;5.50;;;;;;;8.97;45.70;103448.83;107150;1252;25357;-54
2023/12/16 10:11:08;;;;;;;6.60;5.50;;;;;;;9.20;45.42;103453.09;107109;1250;25347;-54
2023/12/16 10:13:55;;;;;;;5.70;5.10;;;;;;;9.28;45.17;103453.66;106437;1251;1002886;-54
2023/12/16 10:16:22;;;;;;;8.60;6.30;;;;;;;9.31;45.08;103457.39;107254;1259;22639;-54
2023/12/16 10:18:51;;;;;;;7.90;5.60;;;;;;;9.34;45.08;103463.02;106379;1255;1003648;-54
2023/12/16 10:21:25;;;;;;;6.20;5.60;;;;;;;9.36;45.02;103464.11;106744;1260;22643;-54
2023/12/16 10:23:55;;;;;;;6.40;5.70;;;;;;;9.39;44.76;103462.11;106304;1254;1003702;-54
2023/12/16 10:26:22;;;;;;;7.10;5.60;;;;;;;9.39;44.74;103461.77;106364;1255;1003640;-54
2023/12/16 10:28:50;;;;;;;6.80;5.20;;;;;;;9.40;44.72;103460.91;106903;1260;22534;-54
2023/12/16 10:31:18;;;;;;;7.40;6.00;;;;;;;9.37;44.78;103459.45;106952;1263;25357;-54
2023/12/16 10:33:46;;;;;;;8.40;6.30;;;;;;;9.34;44.79;103456.77;106851;1250;22533;-54
2023/12/16 10:36:14;;;;;;;6.30;5.60;;;;;;;9.36;44.81;103452.83;106866;1251;25560;-54
2023/12/16 10:38:41;;;;;;;7.70;5.60;;;;;;;9.39;44.76;103451.88;106931;1251;24281;-54
2023/12/16 10:41:09;;;;;;;6.50;5.30;;;;;;;9.36;44.48;103451.29;107137;1250;25347;-54
2023/12/16 10:43:37;;;;;;;6.80;5.60;;;;;;;9.33;44.38;103454.48;106430;1254;1002901;-54
2023/12/16 10:46:05;;;;;;;7.30;5.70;;;;;;;9.30;44.39;103450.95;106769;1259;24363;-54
2023/12/16 10:48:34;;;;;;;6.60;5.90;;;;;;;9.31;44.35;103451.15;107189;1254;25336;-54
2023/12/16 10:51:02;;;;;;;6.90;6.20;;;;;;;9.32;44.35;103451.70;107000;1255;24351;-54
2023/12/16 10:53:44;;;;;;;8.20;6.70;;;;;;;9.30;44.19;103453.55;106825;1251;24284;-54
2023/12/16 10:56:17;;;;;;;8.30;6.10;;;;;;;9.28;44.30;103456.77;106656;1259;22608;-54
2023/12/16 10:58:52;;;;;;;8.10;6.50;;;;;;;9.26;44.22;103453.27;106819;1254;25376;-54
2023/12/16 11:01:20;;;;;;;7.10;5.90;;;;;;;9.23;44.31;103447.30;106868;1254;25481;-54
2023/12/16 11:04:12;;;;;;;7.80;6.00;;;;;;;9.21;44.29;103445.14;106783;1254;25297;-54
2023/12/16 11:06:43;;;;;;;6.10;5.50;;;;;;;9.20;44.30;103448.44;106289;1262;25288;-54
2023/12/16 11:09:11;;;;;;;8.10;6.40;;;;;;;9.22;44.48;103447.78;106238;1273;25341;-54
2023/12/16 11:11:39;;;;;;;7.60;6.20;;;;;;;9.25;44.46;103444.56;106367;1260;22770;-54
2023/12/16 11:14:06;;;;;;;9.00;6.80;;;;;;;9.28;44.27;103438.61;106272;1259;26663;-54
2023/12/16 11:16:41;;;;;;;7.70;5.70;;;;;;;9.34;44.20;103431.84;106310;1262;25555;-54
2023/12/16 11:19:09;;;;;;;7.60;6.40;;;;;;;9.43;44.11;103425.83;106257;1259;25689;-55
2023/12/16 11:21:39;;;;;;;9.20;7.10;;;;;;;9.46;43.97;103430.06;106202;1262;24235;-54
2023/12/16 11:24:06;;;;;;;9.70;6.90;;;;;;;9.49;43.94;103429.27;106138;1260;22763;-54